Time;durP1;ratioP1;P1;durP2;ratioP2;P2;SDS_P1;SDS_P2;PMS_P1;PMS_P2;Temp;Humidity;BMP_temperature;BMP_pressure;BME280_temperature;BME280_humidity;BME280_pressure;Samples;Min_cycle;Max_cycle;Signal;HPM_P1;HPM_P2
2021/01/29 00:01:59;;;;;;;4.00;3.17;;;;;;;8.84;79.84;99959.41;5017110;28;20025;-81
2021/01/29 00:04:25;;;;;;;4.95;3.10;;;;;;;8.79;79.83;99959.69;5017034;28;20400;-81
2021/01/29 00:06:51;;;;;;;4.00;2.28;;;;;;;8.78;79.55;99952.53;5016057;28;20026;-78
2021/01/29 00:09:18;;;;;;;3.88;2.83;;;;;;;8.83;80.02;99969.72;5017430;28;20088;-80
2021/01/29 00:11:45;;;;;;;2.80;2.60;;;;;;;8.99;79.79;99975.28;5015839;28;20022;-81
2021/01/29 00:14:10;;;;;;;2.63;2.10;;;;;;;8.84;80.59;99967.75;5000469;28;20032;-81
2021/01/29 00:16:36;;;;;;;3.92;2.58;;;;;;;8.78;80.91;99975.53;5017106;28;20029;-81
2021/01/29 00:19:02;;;;;;;4.38;2.58;;;;;;;8.89;80.55;99973.84;5017408;28;20495;-80
2021/01/29 00:21:28;;;;;;;2.22;2.05;;;;;;;8.83;81.03;99966.94;5016741;28;20026;-81
2021/01/29 00:23:53;;;;;;;2.20;2.05;;;;;;;8.95;81.02;99973.56;5016314;28;20089;-81
2021/01/29 00:26:19;;;;;;;2.50;2.10;;;;;;;8.95;80.92;99971.63;5014965;28;20010;-80
2021/01/29 00:28:44;;;;;;;1.92;1.80;;;;;;;8.96;80.82;99969.66;5016102;28;20041;-80
2021/01/29 00:31:10;;;;;;;5.95;2.00;;;;;;;9.03;80.40;99969.81;5011552;28;20089;-79
2021/01/29 00:33:35;;;;;;;2.25;2.05;;;;;;;9.04;80.58;99968.66;5009503;28;20440;-81
2021/01/29 00:36:04;;;;;;;1.98;1.88;;;;;;;8.96;80.87;99959.34;5008278;28;20087;-80
2021/01/29 00:38:29;;;;;;;3.15;2.85;;;;;;;8.87;81.62;99962.28;5009961;28;20092;-80
2021/01/29 00:40:55;;;;;;;3.03;2.53;;;;;;;8.79;81.74;99954.97;5007398;28;20034;-80
2021/01/29 00:43:21;;;;;;;3.22;2.65;;;;;;;8.81;81.97;99957.38;5008300;28;20030;-80
2021/01/29 00:45:47;;;;;;;3.95;3.20;;;;;;;8.68;81.62;99951.06;5009815;28;20029;-81
2021/01/29 00:48:13;;;;;;;3.40;3.08;;;;;;;8.75;82.34;99947.72;5012170;28;20030;-80
2021/01/29 00:50:39;;;;;;;4.35;4.00;;;;;;;8.68;81.72;99953.03;5013612;28;20452;-80
2021/01/29 00:53:07;;;;;;;4.07;3.72;;;;;;;8.66;82.37;99956.19;5031972;28;20069;-80
2021/01/29 00:55:33;;;;;;;4.60;4.20;;;;;;;8.69;81.80;99965.78;5032985;28;20028;-81
2021/01/29 00:57:59;;;;;;;6.25;4.40;;;;;;;8.68;81.67;99961.38;5014997;28;20025;-81
2021/01/29 01:00:25;;;;;;;5.65;4.40;;;;;;;8.67;81.99;99957.78;5015222;28;20057;-76
2021/01/29 01:02:51;;;;;;;5.07;4.15;;;;;;;8.74;81.87;99954.41;5014889;28;20034;-80
2021/01/29 01:05:19;;;;;;;7.30;5.07;;;;;;;8.83;81.54;99955.03;5015325;28;20499;-82
2021/01/29 01:07:44;;;;;;;6.60;4.35;;;;;;;8.94;80.46;99950.56;5032249;28;20026;-80
2021/01/29 01:10:10;;;;;;;6.57;4.30;;;;;;;8.77;81.46;99951.72;5014637;28;20032;-81
2021/01/29 01:12:36;;;;;;;7.30;3.92;;;;;;;8.74;81.57;99949.69;5032051;28;20041;-80
2021/01/29 01:15:13;;;;;;;4.97;4.10;;;;;;;8.74;81.26;99958.00;5014790;28;20028;-81
2021/01/29 01:17:39;;;;;;;7.13;4.45;;;;;;;8.72;82.09;99943.66;5014423;28;20051;-80
2021/01/29 01:20:08;;;;;;;5.40;3.72;;;;;;;8.89;81.68;99937.78;5014443;28;20026;-80
2021/01/29 01:22:33;;;;;;;4.43;3.85;;;;;;;8.76;81.58;99939.03;5014489;28;20030;-81
2021/01/29 01:24:59;;;;;;;6.43;4.35;;;;;;;8.69;81.86;99938.03;5014836;28;20021;-81
2021/01/29 01:27:24;;;;;;;3.03;2.28;;;;;;;8.83;81.76;99936.41;5013938;28;20026;-80
2021/01/29 01:29:50;;;;;;;6.95;3.22;;;;;;;8.78;81.47;99925.59;5015262;28;20028;-81
2021/01/29 01:32:15;;;;;;;3.17;2.47;;;;;;;8.87;81.50;99922.66;5030866;28;20057;-81
2021/01/29 01:34:41;;;;;;;4.43;2.83;;;;;;;8.82;81.52;99922.91;5015025;28;20052;-82
2021/01/29 01:37:06;;;;;;;3.90;2.72;;;;;;;8.75;82.07;99919.97;5014946;28;20041;-81
2021/01/29 01:39:32;;;;;;;3.33;2.00;;;;;;;8.79;81.95;99915.28;5014755;28;20080;-81
2021/01/29 01:41:58;;;;;;;2.72;2.15;;;;;;;8.78;81.88;99910.91;5017660;28;20025;-81
2021/01/29 01:44:36;;;;;;;3.60;2.00;;;;;;;8.73;81.42;99906.44;5017664;28;20026;-81
2021/01/29 01:47:08;;;;;;;3.60;2.75;;;;;;;8.76;81.56;99902.97;5032830;28;20029;-80
2021/01/29 01:49:36;;;;;;;4.43;1.98;;;;;;;8.77;81.64;99904.56;5014891;28;20060;-80
2021/01/29 01:52:08;;;;;;;1.83;1.70;;;;;;;8.85;81.80;99908.34;4998047;28;20036;-81
2021/01/29 01:54:48;;;;;;;1.70;1.60;;;;;;;8.81;81.52;99904.66;5013821;28;20040;-81
2021/01/29 01:57:17;;;;;;;2.67;1.77;;;;;;;8.91;81.10;99916.03;5014312;28;20034;-80
2021/01/29 01:59:52;;;;;;;2.60;1.30;;;;;;;8.95;80.84;99916.13;5014653;28;20034;-81
2021/01/29 02:02:22;;;;;;;1.65;1.55;;;;;;;8.96;80.56;99908.59;5014746;28;20025;-81
2021/01/29 02:04:48;;;;;;;2.15;1.63;;;;;;;8.98;81.05;99895.16;5014479;28;20033;-81
2021/01/29 02:07:40;;;;;;;1.02;0.93;;;;;;;9.03;81.43;99892.13;4998137;28;20090;-81
2021/01/29 02:10:07;;;;;;;1.42;1.33;;;;;;;8.96;81.38;99886.41;5030315;28;20053;-80
2021/01/29 02:12:32;;;;;;;2.00;1.52;;;;;;;8.89;81.37;99882.28;5013504;28;20030;-80
2021/01/29 02:14:58;;;;;;;1.23;1.13;;;;;;;9.24;80.08;99887.06;5012438;28;20041;-81
2021/01/29 02:17:33;;;;;;;1.33;1.23;;;;;;;9.27;79.93;99891.09;5013143;28;20081;-80
2021/01/29 02:20:24;;;;;;;2.22;1.02;;;;;;;9.15;80.79;99894.78;5013595;28;20032;-81
2021/01/29 02:23:14;;;;;;;1.38;1.05;;;;;;;9.10;80.83;99903.38;5013737;28;20026;-80
2021/01/29 02:26:02;;;;;;;1.40;1.30;;;;;;;9.04;80.71;99905.63;5014876;28;20053;-81
2021/01/29 02:28:49;;;;;;;1.50;1.40;;;;;;;9.02;81.02;99902.41;5013842;28;20030;-82
2021/01/29 02:31:33;;;;;;;2.45;1.10;;;;;;;9.09;81.63;99901.78;5012905;28;20034;-79
2021/01/29 02:34:31;;;;;;;1.00;1.00;;;;;;;9.07;81.48;99893.03;4990684;28;20038;-80
2021/01/29 02:37:27;;;;;;;2.22;0.90;;;;;;;9.09;81.16;99880.38;4991165;28;20038;-81
2021/01/29 02:40:17;;;;;;;3.05;1.95;;;;;;;9.09;81.17;99874.03;4991247;28;20050;-81
2021/01/29 02:43:21;;;;;;;1.00;1.00;;;;;;;9.22;80.36;99885.84;4990777;28;20058;-81
2021/01/29 02:46:03;;;;;;;1.42;1.10;;;;;;;9.14;80.75;99893.19;4956768;28;20031;-81
2021/01/29 02:48:37;;;;;;;2.85;1.20;;;;;;;9.11;81.48;99902.25;4993455;28;20022;-80
2021/01/29 02:51:25;;;;;;;1.95;1.45;;;;;;;9.07;81.37;99895.78;4994670;28;20019;-81
2021/01/29 02:54:25;;;;;;;1.25;1.10;;;;;;;9.10;81.13;99892.28;4993798;28;20027;-79
2021/01/29 02:56:59;;;;;;;1.15;0.95;;;;;;;9.11;81.22;99880.03;4975947;28;20031;-82
2021/01/29 03:00:09;;;;;;;2.38;1.08;;;;;;;9.48;80.47;99876.88;4993148;28;20027;-79
2021/01/29 03:03:00;;;;;;;1.75;1.20;;;;;;;9.35;79.99;99877.03;4899796;29;20025;-79
2021/01/29 03:05:54;;;;;;;2.20;1.40;;;;;;;9.20;80.89;99883.41;5009401;28;20034;-80
2021/01/29 03:08:27;;;;;;;3.63;1.90;;;;;;;9.13;81.47;99903.47;4981327;28;20041;-79
2021/01/29 03:11:12;;;;;;;3.05;1.70;;;;;;;9.14;81.50;99896.75;4992033;28;20033;-79
2021/01/29 03:13:38;;;;;;;2.80;1.65;;;;;;;9.14;81.49;99888.44;4992667;28;20026;-80
2021/01/29 03:16:21;;;;;;;3.63;1.55;;;;;;;9.13;81.66;99877.69;4992408;28;20037;-79
2021/01/29 03:19:03;;;;;;;2.17;1.45;;;;;;;9.40;80.70;99873.16;4992922;28;20027;-80
2021/01/29 03:21:37;;;;;;;2.53;2.00;;;;;;;9.22;81.04;99886.66;4992206;28;20035;-79
2021/01/29 03:24:23;;;;;;;2.30;1.83;;;;;;;9.19;80.61;99879.03;4991711;28;20057;-79
2021/01/29 03:26:57;;;;;;;1.98;1.88;;;;;;;9.18;81.49;99885.75;4993760;28;20038;-80
2021/01/29 03:29:27;;;;;;;2.13;1.73;;;;;;;9.45;80.90;99887.56;4991419;28;20046;-79
2021/01/29 03:31:58;;;;;;;3.75;1.73;;;;;;;9.41;81.04;99881.13;4990702;28;20055;-78
2021/01/29 03:34:31;;;;;;;6.53;2.63;;;;;;;9.34;81.05;99882.94;4990895;28;20137;-78
2021/01/29 03:37:06;;;;;;;1.52;1.42;;;;;;;9.43;80.49;99889.13;4990864;28;20042;-79
2021/01/29 03:39:38;;;;;;;3.20;2.30;;;;;;;9.40;80.63;99887.84;4991542;28;20084;-79
2021/01/29 03:42:33;;;;;;;3.00;1.77;;;;;;;9.41;80.51;99895.00;4993236;28;20493;-79
2021/01/29 03:45:22;;;;;;;1.60;1.50;;;;;;;9.42;80.46;99890.25;4992722;28;20102;-79
2021/01/29 03:47:59;;;;;;;5.00;2.47;;;;;;;9.34;81.14;99891.28;4995032;28;20011;-80
2021/01/29 03:50:38;;;;;;;2.40;2.20;;;;;;;9.27;80.94;99875.25;4995431;28;20113;-80
2021/01/29 03:53:45;;;;;;;1.80;1.70;;;;;;;9.30;81.39;99874.53;4996640;28;20018;-79
2021/01/29 03:56:38;;;;;;;2.05;1.80;;;;;;;9.27;81.31;99875.25;4941040;29;20056;-79
2021/01/29 03:59:15;;;;;;;4.70;3.22;;;;;;;9.24;81.48;99872.41;4994552;28;20042;-80
2021/01/29 04:02:04;;;;;;;3.95;3.47;;;;;;;9.25;81.17;99865.66;4995828;28;20122;-79
2021/01/29 04:04:34;;;;;;;4.20;2.67;;;;;;;9.21;81.74;99857.25;4996282;28;20031;-80
2021/01/29 04:07:07;;;;;;;10.63;9.57;;;;;;;9.23;81.99;99856.91;4996207;28;20015;-78
2021/01/29 04:10:01;;;;;;;26.67;23.85;;;;;;;9.19;81.60;99852.06;4996910;28;20496;-80
2021/01/29 04:12:32;;;;;;;;;;;;;;;9.23;81.57;99851.34;4988406;28;20030;-80
2021/01/29 04:15:48;;;;;;;25.10;18.60;;;;;;;9.17;81.74;99859.16;4998079;28;19910;-80
2021/01/29 04:18:30;;;;;;;27.58;20.77;;;;;;;9.14;81.74;99852.34;4902047;29;20033;-77
2021/01/29 04:21:07;;;;;;;26.92;19.40;;;;;;;9.12;81.93;99851.13;4989145;28;20098;-80
2021/01/29 04:23:44;;;;;;;7.15;4.95;;;;;;;9.19;82.24;99848.50;4996110;28;20037;-78
2021/01/29 04:26:22;;;;;;;5.45;2.10;;;;;;;9.35;81.94;99849.25;4996131;28;20027;-80
2021/01/29 04:28:54;;;;;;;10.95;8.23;;;;;;;9.31;80.93;99836.47;4978656;28;20054;-76
2021/01/29 04:31:23;;;;;;;5.70;4.53;;;;;;;9.26;81.55;99834.75;4996030;28;20031;-80
2021/01/29 04:33:57;;;;;;;3.28;2.97;;;;;;;9.27;81.72;99839.16;4996397;28;20038;-80
2021/01/29 04:36:29;;;;;;;5.00;3.22;;;;;;;9.22;81.75;99846.97;4994598;28;20037;-79
2021/01/29 04:39:23;;;;;;;3.95;2.58;;;;;;;9.19;81.99;99852.06;4994680;28;20085;-80
2021/01/29 04:41:51;;;;;;;3.65;2.25;;;;;;;9.15;82.17;99853.16;4996180;28;20030;-80
2021/01/29 04:44:32;;;;;;;6.82;4.05;;;;;;;9.14;82.50;99857.09;4994694;28;20383;-79
2021/01/29 04:47:20;;;;;;;8.57;6.43;;;;;;;9.10;82.29;99859.78;4994186;28;20031;-79
2021/01/29 04:49:52;;;;;;;5.35;4.22;;;;;;;9.09;82.71;99862.91;4994852;28;20027;-80
2021/01/29 04:52:56;;;;;;;2.72;2.53;;;;;;;9.18;82.39;99871.88;4994734;28;20037;-78
2021/01/29 04:55:52;;;;;;;3.22;2.00;;;;;;;9.19;82.34;99876.25;4993580;28;20027;-79
2021/01/29 04:58:22;;;;;;;2.22;2.03;;;;;;;9.15;82.34;99865.06;4993541;28;20038;-77
2021/01/29 05:01:22;;;;;;;4.55;3.60;;;;;;;9.14;82.27;99866.22;4993927;28;20054;-80
2021/01/29 05:04:03;;;;;;;2.70;2.50;;;;;;;9.12;82.58;99873.31;4994745;28;20058;-80
2021/01/29 05:06:52;;;;;;;4.47;3.58;;;;;;;9.14;82.79;99866.22;4995365;28;20027;-80
2021/01/29 05:09:51;;;;;;;2.20;2.00;;;;;;;9.21;82.81;99873.09;4995474;28;20031;-81
2021/01/29 05:12:43;;;;;;;1.55;1.33;;;;;;;9.25;82.52;99876.78;4993826;28;20018;-80
2021/01/29 05:15:36;;;;;;;2.05;1.85;;;;;;;9.24;82.54;99878.75;4988026;28;20042;-80
2021/01/29 05:18:24;;;;;;;2.28;2.03;;;;;;;9.24;82.38;99867.66;4994232;28;20010;-79
2021/01/29 05:21:38;;;;;;;2.83;2.20;;;;;;;9.23;82.08;99885.47;4995208;28;20039;-80
2021/01/29 05:24:28;;;;;;;1.85;1.70;;;;;;;9.24;81.83;99886.28;4995824;28;20018;-79
2021/01/29 05:27:12;;;;;;;2.38;1.77;;;;;;;9.25;82.00;99888.69;4995581;28;20034;-75
2021/01/29 05:30:11;;;;;;;1.80;1.70;;;;;;;9.25;81.89;99885.91;4994860;28;20023;-79
2021/01/29 05:32:57;;;;;;;3.20;2.00;;;;;;;9.25;81.86;99882.31;5016319;28;20053;-80
2021/01/29 05:35:35;;;;;;;2.83;1.85;;;;;;;9.25;81.59;99883.13;5035310;28;20033;-79
2021/01/29 05:38:22;;;;;;;2.50;2.00;;;;;;;9.27;81.92;99877.22;5018313;28;20084;-80
2021/01/29 05:41:07;;;;;;;1.67;1.58;;;;;;;9.24;81.63;99878.75;5018791;28;20026;-80
2021/01/29 05:43:39;;;;;;;;;;;;;;;9.23;81.41;99874.38;5017912;28;20587;-76
2021/01/29 05:46:23;;;;;;;1.63;1.45;;;;;;;9.22;81.25;99878.31;5018234;28;19893;-79
2021/01/29 05:49:24;;;;;;;2.00;1.80;;;;;;;9.19;81.63;99885.38;5018295;28;20057;-77
2021/01/29 05:52:07;;;;;;;2.13;2.03;;;;;;;9.16;81.54;99888.06;5035020;28;20082;-78
2021/01/29 05:55:04;;;;;;;2.22;2.00;;;;;;;9.14;82.10;99882.88;5018237;28;20038;-79
2021/01/29 05:57:48;;;;;;;2.50;2.08;;;;;;;9.11;81.86;99880.03;5017051;28;20029;-80
2021/01/29 06:00:45;;;;;;;2.65;2.15;;;;;;;9.07;82.44;99876.38;5016914;28;20065;-79
2021/01/29 06:03:29;;;;;;;2.95;2.20;;;;;;;9.07;82.22;99884.69;5016558;28;20111;-80
2021/01/29 06:06:07;;;;;;;;;;;;;;;9.06;82.35;99885.88;5032769;28;20041;-80
2021/01/29 06:08:54;;;;;;;3.88;3.50;;;;;;;9.03;82.32;99887.38;5015998;28;19948;-78
2021/01/29 06:11:25;;;;;;;5.00;3.50;;;;;;;9.01;82.36;99891.69;5015816;28;20034;-79
2021/01/29 06:14:28;;;;;;;5.35;3.40;;;;;;;9.04;82.71;99902.06;5015866;28;20030;-79
2021/01/29 06:17:06;;;;;;;10.20;4.57;;;;;;;9.09;82.41;99899.00;5032029;28;20022;-80
2021/01/29 06:19:53;;;;;;;5.15;4.40;;;;;;;9.07;82.94;99904.91;5016113;28;20089;-80
2021/01/29 06:22:28;;;;;;;7.43;4.32;;;;;;;9.10;82.70;99909.75;5017236;28;20065;-80
2021/01/29 06:25:24;;;;;;;6.20;4.32;;;;;;;9.09;82.98;99904.56;5021152;28;20061;-79
2021/01/29 06:28:04;;;;;;;3.97;3.60;;;;;;;9.07;82.88;99904.91;5020490;28;20033;-80
2021/01/29 06:30:39;;;;;;;5.80;4.22;;;;;;;9.12;83.18;99912.97;5019670;28;20022;-79
2021/01/29 06:33:32;;;;;;;7.13;4.15;;;;;;;9.23;82.74;99910.47;5019603;28;20054;-79
2021/01/29 06:36:20;;;;;;;3.85;3.20;;;;;;;9.24;83.08;99917.63;5016086;28;20030;-79
2021/01/29 06:38:51;;;;;;;11.05;6.57;;;;;;;9.30;83.02;99924.50;5017347;28;20029;-80
2021/01/29 06:41:54;;;;;;;5.78;3.58;;;;;;;9.35;82.65;99935.31;5024409;28;20025;-79
2021/01/29 06:47:05;;;;;;;6.28;3.33;;;;;;;9.41;82.46;99931.09;5298968;22;20037;-76
2021/01/29 06:49:40;;;;;;;8.77;3.90;;;;;;;9.43;82.21;99923.25;5062193;28;20052;-79
2021/01/29 06:52:35;;;;;;;6.18;4.00;;;;;;;9.43;82.25;99925.22;5059044;28;20451;-79
2021/01/29 06:55:08;;;;;;;9.65;3.17;;;;;;;9.43;82.53;99916.88;5050245;28;20025;-78
2021/01/29 06:58:09;;;;;;;4.43;3.50;;;;;;;9.46;82.67;99910.59;5050305;28;20082;-77
2021/01/29 07:00:50;;;;;;;6.72;4.10;;;;;;;9.48;82.80;99924.94;5040686;28;20036;-78
2021/01/29 07:03:40;;;;;;;2.97;2.67;;;;;;;9.50;82.46;99928.13;5044258;28;20036;-79
2021/01/29 07:06:24;;;;;;;3.20;2.65;;;;;;;9.56;82.44;99918.34;5043807;28;20032;-78
2021/01/29 07:09:12;;;;;;;3.85;3.47;;;;;;;9.58;82.41;99913.22;5046388;28;20391;-78
2021/01/29 07:11:55;;;;;;;4.13;3.72;;;;;;;9.62;82.36;99893.88;5063285;28;20028;-77
2021/01/29 07:14:43;;;;;;;5.47;4.75;;;;;;;9.66;82.54;99892.78;5045335;28;20025;-78
2021/01/29 07:17:38;;;;;;;9.85;4.20;;;;;;;9.72;81.93;99918.31;5045940;28;20032;-79
2021/01/29 07:20:25;;;;;;;7.65;4.38;;;;;;;9.77;81.91;99920.81;5046342;28;20025;-76
2021/01/29 07:23:14;;;;;;;6.20;4.20;;;;;;;9.82;81.65;99923.31;5046007;28;20021;-78
2021/01/29 07:25:42;;;;;;;8.10;3.78;;;;;;;9.73;81.72;99902.44;5042270;28;20029;-79
2021/01/29 07:28:29;;;;;;;10.93;5.45;;;;;;;9.86;81.48;99918.63;5042052;28;20025;-78
2021/01/29 07:31:15;;;;;;;9.40;5.18;;;;;;;9.95;81.47;99905.31;5042982;28;20033;-76
2021/01/29 07:33:57;;;;;;;8.80;7.10;;;;;;;9.87;81.85;99908.31;5042281;28;20387;-77
2021/01/29 07:36:43;;;;;;;9.80;6.90;;;;;;;9.93;81.27;99918.78;5041596;28;20053;-78
2021/01/29 07:39:33;;;;;;;9.32;6.75;;;;;;;9.98;81.77;99920.47;5059119;28;20025;-78
2021/01/29 07:42:30;;;;;;;9.93;6.60;;;;;;;10.02;81.46;99914.97;5042630;28;20121;-78
2021/01/29 07:45:30;;;;;;;9.55;7.28;;;;;;;10.04;81.15;99912.63;5041423;28;20033;-79
2021/01/29 07:48:20;;;;;;;8.60;6.45;;;;;;;10.06;81.04;99899.16;5038992;28;20053;-78
2021/01/29 07:50:49;;;;;;;7.97;5.63;;;;;;;10.07;80.78;99918.28;5039144;28;20033;-78
2021/01/29 07:53:46;;;;;;;7.90;5.75;;;;;;;9.96;80.97;99901.38;5038072;28;20068;-78
2021/01/29 07:56:50;;;;;;;12.88;8.23;;;;;;;10.12;81.13;99926.31;5037853;28;20044;-78
2021/01/29 07:59:38;;;;;;;10.80;8.38;;;;;;;10.14;80.94;99928.72;5039314;28;20056;-78
2021/01/29 08:02:22;;;;;;;15.55;9.40;;;;;;;10.14;81.38;99928.72;5039658;28;20384;-79
2021/01/29 08:05:09;;;;;;;12.25;7.85;;;;;;;10.19;80.87;99925.66;5038919;28;20030;-78
2021/01/29 08:07:39;;;;;;;9.43;7.35;;;;;;;10.25;80.95;99901.16;5038391;28;20064;-79
2021/01/29 08:10:24;;;;;;;9.68;6.45;;;;;;;10.35;80.29;99900.56;5038417;28;20041;-79
2021/01/29 08:13:01;;;;;;;6.40;5.18;;;;;;;10.41;80.02;99905.47;5038896;28;20087;-79
2021/01/29 08:16:02;;;;;;;6.93;6.10;;;;;;;10.49;79.83;99895.25;5022111;28;20033;-79
2021/01/29 08:18:58;;;;;;;8.70;6.88;;;;;;;10.62;79.19;99876.44;5012641;28;20033;-79
2021/01/29 08:21:45;;;;;;;15.77;7.38;;;;;;;10.78;79.12;99890.22;5037315;28;20029;-78
2021/01/29 08:24:26;;;;;;;15.95;7.18;;;;;;;10.88;78.43;99881.25;5037440;28;20022;-78
2021/01/29 08:27:29;;;;;;;11.27;7.53;;;;;;;10.94;77.90;99894.47;5038667;28;20052;-79
2021/01/29 08:30:28;;;;;;;14.93;6.95;;;;;;;11.00;77.70;99892.19;5037838;28;20170;-79
2021/01/29 08:33:25;;;;;;;9.43;7.53;;;;;;;10.91;77.86;99886.88;5038343;28;20041;-78
2021/01/29 08:36:33;;;;;;;9.52;5.50;;;;;;;10.98;78.65;99889.78;5037098;28;20033;-78
2021/01/29 08:39:01;;;;;;;8.27;5.70;;;;;;;11.01;77.65;99886.25;5038098;28;20087;-78
2021/01/29 08:41:36;;;;;;;8.38;6.05;;;;;;;11.05;77.88;99899.44;5038220;28;20079;-79
2021/01/29 08:44:20;;;;;;;12.77;7.50;;;;;;;11.08;77.56;99891.13;5038616;28;20025;-78
2021/01/29 08:47:03;;;;;;;7.43;6.65;;;;;;;11.21;77.68;99894.50;5038073;28;20543;-78
2021/01/29 08:50:15;;;;;;;8.70;5.88;;;;;;;11.27;77.10;99884.66;5038664;28;20063;-79
2021/01/29 08:53:07;;;;;;;8.55;5.57;;;;;;;11.33;76.60;99887.91;5006009;28;20041;-78
2021/01/29 08:55:39;;;;;;;8.23;6.35;;;;;;;11.30;76.18;99869.19;5039439;28;20025;-80
2021/01/29 08:58:25;;;;;;;10.85;8.25;;;;;;;11.39;77.04;99875.28;5039551;28;20033;-79
2021/01/29 09:01:01;;;;;;;8.65;5.80;;;;;;;11.25;76.94;99876.69;5039559;28;20093;-80
2021/01/29 09:03:37;;;;;;;16.02;10.13;;;;;;;11.22;77.49;99890.53;5038879;28;20053;-79
2021/01/29 09:06:36;;;;;;;12.88;7.03;;;;;;;11.21;77.15;99886.16;5040212;28;20018;-78
2021/01/29 09:09:06;;;;;;;17.30;13.38;;;;;;;11.11;77.38;99872.88;5039348;28;20033;-73
2021/01/29 09:11:34;;;;;;;15.80;11.73;;;;;;;11.08;78.22;99881.97;5042043;28;20025;-78
2021/01/29 09:14:06;;;;;;;12.75;10.38;;;;;;;11.17;78.03;99890.84;5042678;28;20031;-79
2021/01/29 09:16:36;;;;;;;13.82;10.27;;;;;;;11.17;77.78;99876.94;5049258;28;20028;-80
2021/01/29 09:19:13;;;;;;;15.10;13.07;;;;;;;11.24;78.08;99886.22;5049118;28;20049;-78
2021/01/29 09:21:59;;;;;;;32.33;20.38;;;;;;;11.33;77.07;99880.38;5040306;28;20033;-79
2021/01/29 09:24:39;;;;;;;21.88;17.52;;;;;;;11.31;77.96;99874.38;4999748;28;20042;-78
2021/01/29 09:27:04;;;;;;;15.32;9.68;;;;;;;11.69;76.44;99872.53;5037607;28;20100;-78
2021/01/29 09:29:57;;;;;;;17.98;10.20;;;;;;;11.71;76.07;99881.28;5037428;28;20096;-78
2021/01/29 09:32:45;;;;;;;15.30;7.13;;;;;;;11.82;76.33;99887.84;5000825;28;20044;-78
2021/01/29 09:35:16;;;;;;;14.15;7.82;;;;;;;11.76;76.63;99890.13;5001723;28;20037;-78
2021/01/29 09:37:50;;;;;;;12.48;8.18;;;;;;;11.69;77.31;99886.44;5043709;28;20120;-78
2021/01/29 09:40:23;;;;;;;12.85;6.90;;;;;;;11.71;76.29;99896.03;5043291;28;20053;-79
2021/01/29 09:43:11;;;;;;;11.27;7.68;;;;;;;11.71;76.50;99896.03;5043844;28;20033;-78
2021/01/29 09:45:39;;;;;;;17.05;9.27;;;;;;;11.75;76.87;99904.44;5043655;28;20064;-79
2021/01/29 09:48:08;;;;;;;15.90;10.05;;;;;;;11.84;76.81;99896.66;5043797;28;20197;-79
2021/01/29 09:50:34;;;;;;;15.40;13.13;;;;;;;11.85;76.63;99886.28;5045884;28;20033;-79
2021/01/29 09:53:06;;;;;;;16.65;10.45;;;;;;;11.91;76.14;99887.56;5046108;28;20029;-79
2021/01/29 09:56:07;;;;;;;19.92;12.07;;;;;;;11.96;75.80;99882.44;5045646;28;20036;-79
2021/01/29 09:58:36;;;;;;;17.75;10.15;;;;;;;12.00;76.36;99882.50;5041148;28;20041;-78
2021/01/29 10:01:16;;;;;;;13.63;10.38;;;;;;;12.06;76.06;99876.22;5045691;28;20025;-79
2021/01/29 10:04:17;;;;;;;13.68;10.60;;;;;;;11.91;77.00;99868.03;5047115;28;20029;-79
2021/01/29 10:06:58;;;;;;;18.35;9.30;;;;;;;11.88;77.78;99852.06;5008707;28;20065;-78
2021/01/29 10:09:29;;;;;;;13.80;9.65;;;;;;;11.86;77.84;99846.88;5046051;28;20025;-79
2021/01/29 10:12:04;;;;;;;18.90;10.60;;;;;;;11.92;78.08;99853.72;5040836;28;20029;-79
2021/01/29 10:14:40;;;;;;;17.15;10.40;;;;;;;11.75;79.19;99835.56;5039519;28;20067;-77
2021/01/29 10:17:30;;;;;;;29.27;17.23;;;;;;;11.80;78.67;99823.28;5039260;28;20030;-78
2021/01/29 10:19:59;;;;;;;35.67;24.75;;;;;;;11.77;80.26;99818.47;5040856;28;20060;-79
2021/01/29 10:22:40;;;;;;;26.13;19.80;;;;;;;11.80;79.83;99817.72;5038521;28;20033;-78
2021/01/29 10:25:27;;;;;;;16.08;11.30;;;;;;;11.85;80.02;99800.69;5040186;28;20033;-79
2021/01/29 10:28:18;;;;;;;17.05;9.93;;;;;;;11.93;79.67;99788.44;5036985;28;20437;-78
2021/01/29 10:30:44;;;;;;;12.68;9.05;;;;;;;11.96;78.78;99793.22;5040214;28;20486;-78
2021/01/29 10:33:28;;;;;;;14.43;10.77;;;;;;;11.96;79.86;99784.88;5039101;28;20049;-79
2021/01/29 10:36:12;;;;;;;;;;;;;;;11.98;78.89;99785.28;5040398;28;20036;-78
2021/01/29 10:38:48;;;;;;;14.23;8.07;;;;;;;11.84;79.32;99787.94;5039572;28;19959;-79
2021/01/29 10:41:31;;;;;;;13.73;7.78;;;;;;;11.90;79.07;99788.38;5039915;28;20029;-78
2021/01/29 10:44:07;;;;;;;13.45;7.57;;;;;;;11.92;78.88;99791.59;5040342;28;20041;-79
2021/01/29 10:46:50;;;;;;;10.80;7.13;;;;;;;11.82;78.96;99787.50;5040111;28;20044;-79
2021/01/29 10:49:44;;;;;;;12.02;6.82;;;;;;;11.77;79.55;99779.44;5042988;28;20096;-78
2021/01/29 10:52:56;;;;;;;8.88;5.97;;;;;;;11.51;80.40;99750.50;5041673;28;20036;-78
2021/01/29 10:55:26;;;;;;;16.10;9.88;;;;;;;11.45;81.29;99754.81;5030222;28;20033;-79
2021/01/29 10:58:19;;;;;;;12.35;9.32;;;;;;;11.54;81.51;99772.00;5040219;28;20490;-78
2021/01/29 11:00:55;;;;;;;12.85;8.68;;;;;;;11.49;81.49;99760.41;5039750;28;20028;-78
2021/01/29 11:03:47;;;;;;;23.50;11.07;;;;;;;11.39;82.20;99764.66;5039441;28;20086;-78
2021/01/29 11:06:16;;;;;;;19.08;9.93;;;;;;;11.40;82.46;99765.44;5041946;28;20037;-79
2021/01/29 11:08:45;;;;;;;15.45;10.27;;;;;;;11.42;82.64;99772.25;5041245;28;20047;-79
2021/01/29 11:11:23;;;;;;;13.90;10.00;;;;;;;11.42;82.64;99769.47;5046141;28;20120;-79
2021/01/29 11:14:08;;;;;;;13.20;9.27;;;;;;;11.47;82.46;99760.78;5030596;28;20033;-79
2021/01/29 11:16:49;;;;;;;13.20;9.02;;;;;;;11.48;83.41;99759.59;5048006;28;20029;-79
2021/01/29 11:19:23;;;;;;;13.07;8.73;;;;;;;11.46;83.23;99752.81;5041387;28;20021;-78
2021/01/29 11:21:55;;;;;;;15.07;8.95;;;;;;;11.50;82.97;99748.91;5041645;28;20036;-77
2021/01/29 11:24:39;;;;;;;15.52;9.13;;;;;;;11.49;82.82;99754.81;5040434;28;20123;-76
2021/01/29 11:27:19;;;;;;;13.27;9.60;;;;;;;11.46;83.14;99747.25;5041946;28;20021;-76
2021/01/29 11:29:49;;;;;;;18.00;11.45;;;;;;;11.61;82.45;99734.25;5039959;28;20062;-77
2021/01/29 11:32:38;;;;;;;15.07;10.32;;;;;;;11.49;82.98;99730.56;5043951;28;20395;-77
2021/01/29 11:35:40;;;;;;;24.73;18.08;;;;;;;11.34;83.00;99703.72;5039609;28;20360;-75
2021/01/29 11:38:15;;;;;;;24.48;16.45;;;;;;;11.52;83.92;99732.59;5041685;28;20063;-79
2021/01/29 11:41:03;;;;;;;27.20;18.20;;;;;;;11.43;83.95;99725.72;5053805;28;20100;-79
2021/01/29 11:44:04;;;;;;;28.35;19.92;;;;;;;11.40;83.76;99715.31;5057291;28;20119;-77
2021/01/29 11:46:51;;;;;;;32.90;24.52;;;;;;;11.39;84.88;99722.88;5041448;28;20403;-77
2021/01/29 11:49:27;;;;;;;30.35;23.73;;;;;;;11.35;84.66;99710.09;5043127;28;20111;-78
2021/01/29 11:52:30;;;;;;;30.55;24.70;;;;;;;11.32;85.01;99702.50;5041171;28;20033;-77
2021/01/29 11:55:19;;;;;;;26.30;21.33;;;;;;;11.33;84.92;99704.91;4940310;29;20585;-76
2021/01/29 11:57:51;;;;;;;20.27;14.40;;;;;;;11.19;84.55;99690.81;5035393;28;20064;-77
2021/01/29 12:00:21;;;;;;;18.55;12.88;;;;;;;11.23;85.22;99683.28;5039582;28;20033;-77
2021/01/29 12:03:09;;;;;;;20.83;15.88;;;;;;;11.15;86.16;99685.19;5039178;28;20039;-76
2021/01/29 12:06:04;;;;;;;21.15;18.13;;;;;;;10.98;86.17;99644.81;5002789;28;20041;-76
2021/01/29 12:08:50;;;;;;;23.45;18.98;;;;;;;11.11;86.55;99658.47;5018785;28;20033;-76
2021/01/29 12:11:22;;;;;;;14.40;11.52;;;;;;;11.20;85.91;99661.78;5040685;28;20063;-76
2021/01/29 12:14:03;;;;;;;19.48;13.18;;;;;;;11.12;85.98;99666.44;5041449;28;20120;-77
2021/01/29 12:16:33;;;;;;;11.60;8.90;;;;;;;11.09;86.30;99655.28;5042369;28;20083;-76
2021/01/29 12:19:01;;;;;;;11.95;9.07;;;;;;;11.22;85.80;99637.13;5039646;28;20136;-76
2021/01/29 12:21:35;;;;;;;10.70;8.82;;;;;;;11.15;86.35;99637.06;5037709;28;20088;-76
2021/01/29 12:24:15;;;;;;;28.67;20.88;;;;;;;10.91;86.92;99650.28;5038383;28;20464;-76
2021/01/29 12:27:07;;;;;;;15.27;11.73;;;;;;;11.00;87.76;99653.56;5038026;28;20033;-76
2021/01/29 12:30:06;;;;;;;13.50;11.00;;;;;;;10.90;87.41;99653.44;5037905;28;20124;-76
2021/01/29 12:32:39;;;;;;;16.13;13.48;;;;;;;10.86;88.15;99656.16;4997865;28;20041;-76
2021/01/29 12:35:20;;;;;;;19.30;17.27;;;;;;;10.76;88.82;99629.03;5038074;28;20032;-77
2021/01/29 12:38:09;;;;;;;26.00;21.15;;;;;;;10.84;89.13;99647.41;5038373;28;20039;-76
2021/01/29 12:41:04;;;;;;;22.25;19.17;;;;;;;10.82;88.90;99660.91;5056036;28;20029;-77